createdAt,value
2022-10-19T00:34:38.154Z,15.27
2022-10-19T00:36:42.080Z,15.28
2022-10-19T00:38:45.452Z,15.29
2022-10-19T00:40:49.201Z,15.29
2022-10-19T00:42:55.977Z,15.29
2022-10-19T00:45:08.103Z,15.33
2022-10-19T00:47:11.618Z,15.35
2022-10-19T00:49:17.570Z,15.33
2022-10-19T00:51:22.762Z,15.34
2022-10-19T00:53:27.043Z,15.34
2022-10-19T00:55:30.799Z,15.30
2022-10-19T00:57:34.107Z,15.29
2022-10-19T00:59:38.044Z,15.29
2022-10-19T01:01:41.465Z,15.32
2022-10-19T01:03:44.902Z,15.29
2022-10-19T01:05:48.917Z,15.24
2022-10-19T01:07:53.775Z,15.23
2022-10-19T01:09:57.314Z,15.23
2022-10-19T01:12:06.889Z,15.27
2022-10-19T01:14:21.619Z,15.26
2022-10-19T01:16:30.720Z,15.27
2022-10-19T01:18:41.375Z,15.29
2022-10-19T01:21:06.634Z,15.35
2022-10-19T01:23:32.618Z,15.39
2022-10-19T01:25:49.970Z,15.46
2022-10-19T01:28:04.988Z,15.51
2022-10-19T01:30:13.453Z,15.55
2022-10-19T01:32:21.401Z,15.63
2022-10-19T01:34:27.423Z,15.62
2022-10-19T01:36:37.306Z,15.67
2022-10-19T01:38:47.461Z,15.68
2022-10-19T01:40:56.912Z,15.68
2022-10-19T01:43:04.641Z,15.76
2022-10-19T01:45:15.200Z,15.83
2022-10-19T01:47:21.235Z,15.84
2022-10-19T01:49:28.535Z,15.87
2022-10-19T01:51:34.911Z,15.88
2022-10-19T01:53:42.823Z,15.89
2022-10-19T01:55:46.800Z,15.91
2022-10-19T01:57:54.497Z,15.91
2022-10-19T01:59:58.658Z,15.93
2022-10-19T02:02:04.597Z,15.90
2022-10-19T02:04:08.403Z,15.88
2022-10-19T02:06:12.976Z,15.84
2022-10-19T02:08:20.581Z,15.82
2022-10-19T02:10:24.247Z,15.75
2022-10-19T02:12:28.580Z,15.79
2022-10-19T02:14:35.327Z,15.79
2022-10-19T02:16:42.935Z,15.79
2022-10-19T02:18:50.848Z,15.76
2022-10-19T02:20:54.566Z,15.82
2022-10-19T02:22:58.235Z,15.81
2022-10-19T02:25:02.036Z,15.81
2022-10-19T02:27:06.779Z,15.79
2022-10-19T02:29:11.359Z,15.78
2022-10-19T02:31:15.796Z,15.75
2022-10-19T02:33:20.250Z,15.72
2022-10-19T02:35:26.234Z,15.72
2022-10-19T02:37:29.742Z,15.72
2022-10-19T02:39:33.809Z,15.68
2022-10-19T02:41:39.596Z,15.68
2022-10-19T02:43:44.423Z,15.64
2022-10-19T02:45:53.189Z,15.60
2022-10-19T02:48:00.011Z,15.62
2022-10-19T02:50:06.290Z,15.63
2022-10-19T02:52:12.340Z,15.61
2022-10-19T02:54:15.675Z,15.62
2022-10-19T02:56:18.974Z,15.57
2022-10-19T02:58:22.426Z,15.55
2022-10-19T03:00:25.710Z,15.54
2022-10-19T03:02:29.084Z,15.53
2022-10-19T03:04:32.585Z,15.53
2022-10-19T03:06:35.898Z,15.55
2022-10-19T03:08:40.799Z,15.53
2022-10-19T03:10:44.177Z,15.55
2022-10-19T03:12:47.707Z,15.56
2022-10-19T03:14:51.007Z,15.55
2022-10-19T03:16:54.284Z,15.54
2022-10-19T03:18:57.744Z,15.51
2022-10-19T03:21:04.227Z,15.55
2022-10-19T03:23:07.960Z,15.55
2022-10-19T03:25:13.031Z,15.55
2022-10-19T03:27:16.539Z,15.55
2022-10-19T03:29:19.837Z,15.54
2022-10-19T03:31:23.226Z,15.55
2022-10-19T03:33:26.933Z,15.54
2022-10-19T03:35:47.919Z,15.52
2022-10-19T03:37:52.120Z,15.50
2022-10-19T03:39:55.459Z,15.52
2022-10-19T03:42:00.435Z,15.47
2022-10-19T03:44:04.008Z,15.47
2022-10-19T03:46:07.287Z,15.45
2022-10-19T03:48:10.787Z,15.43
2022-10-19T03:50:16.990Z,15.37
2022-10-19T03:52:20.870Z,15.31
2022-10-19T03:54:27.262Z,15.29
2022-10-19T03:56:32.392Z,15.29
2022-10-19T03:58:38.559Z,15.27
2022-10-19T04:00:41.929Z,15.29
2022-10-19T04:02:45.351Z,15.27
2022-10-19T04:04:48.693Z,15.30
2022-10-19T04:06:53.541Z,15.31
2022-10-19T04:08:56.971Z,15.35
2022-10-19T04:11:02.300Z,15.35
2022-10-19T04:13:05.837Z,15.37
2022-10-19T04:15:11.637Z,15.37
2022-10-19T04:17:15.092Z,15.35
2022-10-19T04:19:18.477Z,15.24
2022-10-19T04:21:25.830Z,15.15
2022-10-19T04:23:35.385Z,15.12
2022-10-19T04:25:39.956Z,15.12
2022-10-19T04:27:48.253Z,15.11
2022-10-19T04:30:01.516Z,15.10
2022-10-19T04:32:08.246Z,15.15
2022-10-19T04:34:13.009Z,15.09
2022-10-19T04:36:17.489Z,15.11
2022-10-19T04:38:22.075Z,15.09
2022-10-19T04:40:26.657Z,15.07
2022-10-19T04:42:30.686Z,15.05
2022-10-19T04:44:34.962Z,15.06
2022-10-19T04:46:39.116Z,15.02
2022-10-19T04:48:45.344Z,15.04
2022-10-19T04:50:50.285Z,15.05
2022-10-19T04:53:03.581Z,15.05
2022-10-19T04:55:08.555Z,15.00
2022-10-19T04:57:12.248Z,15.03
2022-10-19T04:59:15.545Z,14.98
2022-10-19T05:01:20.884Z,14.97
2022-10-19T05:03:24.770Z,14.90
2022-10-19T05:05:29.607Z,14.89
2022-10-19T05:07:33.237Z,14.88
2022-10-19T05:09:37.318Z,14.85
2022-10-19T05:11:40.502Z,14.83
2022-10-19T05:13:44.536Z,14.82
2022-10-19T05:15:57.209Z,14.78
2022-10-19T05:18:01.137Z,14.77
2022-10-19T05:20:05.189Z,14.72
2022-10-19T05:24:42.674Z,14.66
2022-10-19T05:26:46.222Z,14.70
2022-10-19T05:28:50.177Z,14.70
2022-10-19T05:30:53.467Z,14.73
2022-10-19T05:32:57.040Z,14.73
2022-10-19T05:35:00.506Z,14.77
2022-10-19T05:37:04.323Z,14.81
2022-10-19T05:39:11.803Z,14.84
2022-10-19T05:41:16.371Z,14.82
2022-10-19T05:43:20.910Z,14.78
2022-10-19T05:45:24.558Z,14.75
2022-10-19T05:47:31.428Z,14.76
2022-10-19T05:49:36.392Z,14.72
2022-10-19T05:51:40.357Z,14.73
2022-10-19T05:53:44.085Z,14.68
2022-10-19T05:55:48.983Z,14.57
2022-10-19T05:57:53.288Z,14.54
2022-10-19T05:59:58.532Z,14.53
2022-10-19T06:02:01.902Z,14.57
2022-10-19T06:06:23.494Z,14.60
2022-10-19T06:08:27.007Z,14.62
2022-10-19T06:10:31.005Z,14.60
2022-10-19T06:12:41.480Z,14.64
2022-10-19T06:18:15.898Z,14.68
2022-10-19T06:20:19.393Z,14.71
2022-10-19T06:22:22.554Z,14.72
2022-10-19T06:24:25.685Z,14.76
2022-10-19T06:26:29.626Z,14.83
2022-10-19T06:28:34.364Z,14.95
2022-10-19T06:30:40.753Z,15.16
2022-10-19T06:32:44.302Z,15.17
2022-10-19T06:34:47.592Z,15.23
2022-10-19T06:36:50.992Z,15.28
2022-10-19T06:38:54.574Z,15.38
2022-10-19T06:40:59.756Z,15.53
2022-10-19T06:43:03.379Z,15.64
2022-10-19T06:45:09.528Z,15.77
2022-10-19T06:47:12.915Z,15.92
2022-10-19T06:49:16.476Z,16.00
2022-10-19T06:51:20.372Z,16.01
2022-10-19T06:53:23.762Z,15.95
2022-10-19T06:55:27.549Z,15.91
2022-10-19T06:57:31.025Z,15.86
2022-10-19T06:59:34.415Z,15.86
2022-10-19T07:01:39.464Z,15.89
2022-10-19T07:03:43.389Z,15.94
2022-10-19T07:05:54.382Z,16.00
2022-10-19T07:07:58.762Z,16.00
2022-10-19T07:10:02.252Z,16.01
2022-10-19T07:12:06.570Z,16.03
2022-10-19T07:14:10.611Z,16.07
2022-10-19T07:16:19.736Z,16.10
2022-10-19T07:18:26.657Z,16.11
2022-10-19T07:20:30.070Z,16.13
2022-10-19T07:22:36.397Z,16.13
2022-10-19T07:24:40.028Z,16.19
2022-10-19T07:26:43.482Z,16.24
2022-10-19T07:28:48.052Z,16.35
2022-10-19T07:30:51.420Z,16.34
2022-10-19T07:32:54.764Z,16.36
2022-10-19T07:34:59.690Z,16.42
2022-10-19T07:37:03.324Z,16.43
2022-10-19T07:39:08.556Z,16.49
2022-10-19T07:41:14.083Z,16.51
2022-10-19T07:43:17.736Z,16.54
2022-10-19T07:45:25.837Z,16.55
2022-10-19T07:55:50.249Z,16.62
2022-10-19T07:57:53.527Z,16.64
2022-10-19T07:59:56.751Z,16.66
2022-10-19T08:02:02.673Z,16.70
2022-10-19T08:04:49.079Z,16.74
2022-10-19T08:06:31.738Z,16.74
2022-10-19T08:08:35.349Z,16.74
2022-10-19T08:10:39.690Z,16.78
2022-10-19T08:12:44.440Z,16.83
2022-10-19T08:14:48.162Z,16.87
2022-10-19T08:16:51.583Z,16.92
2022-10-19T08:18:58.245Z,16.96
2022-10-19T08:21:03.319Z,16.98
2022-10-19T08:23:07.438Z,17.00
2022-10-19T08:25:10.788Z,17.01
2022-10-19T08:27:14.927Z,17.03
2022-10-19T08:29:21.085Z,17.08
2022-10-19T08:31:24.424Z,17.08
2022-10-19T08:33:27.938Z,17.11
2022-10-19T08:35:31.826Z,17.17
2022-10-19T08:37:47.431Z,17.19
2022-10-19T08:39:51.006Z,17.26
2022-10-19T08:42:00.024Z,17.26
2022-10-19T08:44:24.562Z,17.30
2022-10-19T08:46:33.829Z,17.35
2022-10-19T08:48:39.350Z,17.39
2022-10-19T08:50:44.849Z,17.41
2022-10-19T08:52:52.390Z,17.43
2022-10-19T08:54:58.889Z,17.46
2022-10-19T08:57:08.450Z,17.46
2022-10-19T08:59:15.848Z,17.47
2022-10-19T09:01:33.831Z,17.54
2022-10-19T09:03:56.175Z,17.63
2022-10-19T09:06:08.807Z,17.72
2022-10-19T09:08:17.558Z,17.74
2022-10-19T09:10:25.084Z,17.75
2022-10-19T09:12:43.698Z,17.81
2022-10-19T09:14:56.230Z,17.84
2022-10-19T09:17:04.494Z,17.92
2022-10-19T09:19:26.898Z,17.93
2022-10-19T09:21:46.008Z,17.92
2022-10-19T09:23:56.287Z,18.03
2022-10-19T09:25:59.875Z,18.10
2022-10-19T09:28:11.393Z,18.13
2022-10-19T09:30:19.437Z,18.21
2022-10-19T09:32:27.598Z,18.27
2022-10-19T09:34:33.697Z,18.30
2022-10-19T09:36:50.490Z,18.34
2022-10-19T09:38:54.704Z,18.43
2022-10-19T09:40:59.410Z,18.54
2022-10-19T09:43:19.046Z,18.62
2022-10-19T09:45:33.784Z,18.63
2022-10-19T09:47:39.902Z,18.67
2022-10-19T09:49:44.812Z,18.71
2022-10-19T09:51:51.800Z,18.74
2022-10-19T09:53:56.140Z,18.80
2022-10-19T09:56:01.893Z,18.87
2022-10-19T09:58:07.558Z,18.90
2022-10-19T10:00:19.564Z,18.96
2022-10-19T10:02:24.145Z,19.04
2022-10-19T10:04:30.367Z,18.97
2022-10-19T10:06:34.523Z,18.94
2022-10-19T10:08:41.297Z,19.00
2022-10-19T10:10:46.566Z,18.91
2022-10-19T10:12:50.476Z,18.98
2022-10-19T10:14:56.084Z,19.11
2022-10-19T10:17:04.165Z,19.08
2022-10-19T10:19:09.528Z,18.98
2022-10-19T10:21:16.167Z,18.91
2022-10-19T10:23:25.289Z,18.79
2022-10-19T10:25:31.277Z,18.92
2022-10-19T10:27:36.676Z,19.08
2022-10-19T10:29:40.439Z,19.16
2022-10-19T10:31:44.043Z,19.15
2022-10-19T10:33:55.155Z,19.09
2022-10-19T10:36:03.275Z,19.09
2022-10-19T10:38:10.426Z,19.10
2022-10-19T10:40:23.647Z,19.12
2022-10-19T10:42:30.698Z,19.07
2022-10-19T10:44:36.525Z,19.10
2022-10-19T10:46:45.121Z,19.19
2022-10-19T10:48:53.979Z,19.29
2022-10-19T10:50:57.723Z,19.38
2022-10-19T10:53:02.924Z,19.41
2022-10-19T10:55:19.091Z,19.48
2022-10-19T10:59:31.098Z,19.55
2022-10-19T11:01:38.044Z,19.46
2022-10-19T11:03:50.923Z,19.46
2022-10-19T11:05:57.031Z,19.50
2022-10-19T11:08:04.775Z,19.42
2022-10-19T11:10:18.372Z,19.40
2022-10-19T11:12:35.165Z,19.34
2022-10-19T11:14:45.886Z,19.31
2022-10-19T11:16:52.001Z,19.28
2022-10-19T11:18:58.974Z,19.28
2022-10-19T11:21:07.106Z,19.29
2022-10-19T11:23:15.772Z,19.31
2022-10-19T11:25:31.267Z,19.34
2022-10-19T11:27:45.103Z,19.32
2022-10-19T11:30:00.883Z,19.29
2022-10-19T11:32:04.844Z,19.26
2022-10-19T11:34:16.149Z,19.25
2022-10-19T11:36:31.666Z,19.33
2022-10-19T11:38:44.636Z,19.32
2022-10-19T11:43:26.309Z,19.29
2022-10-19T11:45:38.711Z,19.29
2022-10-19T11:47:55.458Z,19.30
2022-10-19T11:50:06.709Z,19.35
2022-10-19T11:52:14.221Z,19.39
2022-10-19T11:54:29.614Z,19.42
2022-10-19T11:56:58.145Z,19.49
2022-10-19T11:59:06.617Z,19.56
2022-10-19T12:01:17.070Z,19.64
2022-10-19T12:03:36.561Z,19.66
2022-10-19T12:05:47.492Z,19.75
2022-10-19T12:08:00.169Z,19.83
2022-10-19T12:10:09.785Z,19.90
2022-10-19T12:12:25.928Z,19.94
2022-10-19T12:14:32.910Z,19.95
2022-10-19T12:16:39.353Z,20.00
2022-10-19T12:18:45.104Z,19.95
2022-10-19T12:20:51.368Z,19.93
2022-10-19T12:22:57.439Z,19.84
2022-10-19T12:25:02.227Z,19.94
2022-10-19T12:27:06.308Z,20.02
2022-10-19T12:29:15.927Z,20.07
2022-10-19T12:31:19.520Z,20.11
2022-10-19T12:33:30.251Z,20.22
2022-10-19T12:35:46.911Z,20.24
2022-10-19T12:37:55.845Z,20.22
2022-10-19T12:40:04.106Z,20.16
2022-10-19T12:42:13.046Z,20.16
2022-10-19T12:44:41.056Z,20.14
2022-10-19T12:46:53.793Z,20.11
2022-10-19T12:49:34.898Z,20.05
2022-10-19T12:51:46.474Z,20.03
2022-10-19T12:53:50.432Z,20.06
2022-10-19T12:56:01.393Z,20.02
2022-10-19T12:58:07.361Z,19.98
2022-10-19T13:00:23.947Z,19.94
2022-10-19T13:02:29.983Z,19.96
2022-10-19T13:04:40.542Z,19.95
2022-10-19T13:06:46.217Z,19.96
2022-10-19T13:08:56.912Z,19.94
2022-10-19T13:11:14.982Z,19.88
2022-10-19T13:13:53.541Z,19.83
2022-10-19T13:16:00.875Z,19.79
2022-10-19T13:18:04.828Z,19.74
2022-10-19T13:20:44.933Z,19.73
2022-10-19T13:22:50.178Z,19.69
2022-10-19T13:25:23.836Z,19.68
2022-10-19T13:27:39.072Z,19.64
2022-10-19T13:29:44.939Z,19.67
2022-10-19T13:31:49.801Z,19.65
2022-10-19T13:33:55.376Z,19.68
2022-10-19T13:36:07.928Z,19.70
2022-10-19T13:38:24.310Z,19.71
2022-10-19T13:40:28.221Z,19.72
2022-10-19T13:42:31.850Z,19.76
2022-10-19T13:44:36.609Z,19.79
2022-10-19T13:46:53.182Z,19.80
2022-10-19T13:49:38.436Z,19.83
2022-10-19T13:51:51.929Z,19.83
2022-10-19T13:53:58.828Z,19.79
2022-10-19T13:59:12.947Z,19.81
2022-10-19T14:01:26.919Z,19.82
2022-10-19T14:03:42.000Z,19.79
2022-10-19T14:06:15.102Z,19.79
2022-10-19T14:08:32.417Z,19.75
2022-10-19T14:10:56.139Z,19.75
2022-10-19T14:12:59.919Z,19.68
2022-10-19T14:15:13.657Z,19.67
2022-10-19T14:19:30.995Z,19.72
2022-10-19T14:21:38.075Z,19.73
2022-10-19T14:23:42.064Z,19.74
2022-10-19T14:25:51.679Z,19.71
2022-10-19T14:28:00.470Z,19.65
2022-10-19T14:30:05.499Z,19.62
2022-10-19T14:32:10.724Z,19.60
2022-10-19T14:34:16.376Z,19.60
2022-10-19T14:36:24.129Z,19.61
2022-10-19T14:38:31.681Z,19.60
2022-10-19T14:40:37.244Z,19.62
2022-10-19T14:42:43.347Z,19.66
2022-10-19T14:44:49.427Z,19.68
2022-10-19T14:46:52.912Z,19.69
2022-10-19T14:49:01.074Z,19.71
2022-10-19T14:51:05.920Z,19.67
2022-10-19T14:53:22.266Z,19.63
2022-10-19T14:55:40.826Z,19.63
2022-10-19T14:57:45.692Z,19.59
2022-10-19T14:59:52.571Z,19.60
2022-10-19T15:01:58.097Z,19.58
2022-10-19T15:04:03.102Z,19.58
2022-10-19T15:06:08.632Z,19.59
2022-10-19T15:08:18.475Z,19.56
2022-10-19T15:10:23.211Z,19.54
2022-10-19T15:12:29.984Z,19.46
2022-10-19T15:14:33.503Z,19.40
2022-10-19T15:16:45.269Z,19.34
2022-10-19T15:18:50.231Z,19.29
2022-10-19T15:21:12.082Z,19.23
2022-10-19T15:23:34.281Z,19.20
2022-10-19T15:25:38.222Z,19.15
2022-10-19T15:27:45.466Z,19.12
2022-10-19T15:29:56.173Z,19.08
2022-10-19T15:32:14.217Z,19.08
2022-10-19T15:34:24.437Z,19.06
2022-10-19T15:36:29.632Z,19.00
2022-10-19T15:38:34.829Z,18.99
2022-10-19T15:40:42.239Z,18.96
2022-10-19T15:42:47.324Z,18.93
2022-10-19T15:44:53.803Z,18.88
2022-10-19T15:47:19.469Z,18.84
2022-10-19T15:49:53.672Z,18.83
2022-10-19T15:51:56.824Z,18.80
2022-10-19T15:54:02.996Z,18.77
2022-10-19T15:56:06.913Z,18.76
2022-10-19T15:58:10.923Z,18.74
2022-10-19T16:04:25.624Z,18.67
2022-10-19T16:10:29.481Z,18.42
2022-10-19T16:12:33.992Z,18.39
2022-10-19T16:14:37.252Z,18.35
2022-10-19T16:16:40.497Z,18.31
2022-10-19T16:18:43.730Z,18.29
2022-10-19T16:20:47.470Z,18.25
2022-10-19T16:22:51.310Z,18.24
2022-10-19T16:24:54.672Z,18.20
2022-10-19T16:26:59.213Z,18.16
2022-10-19T16:29:02.749Z,18.11
2022-10-19T16:31:06.249Z,18.03
2022-10-19T16:33:09.506Z,17.97
2022-10-19T16:35:12.750Z,17.94
2022-10-19T16:37:15.916Z,17.95
2022-10-19T16:39:19.448Z,17.90
2022-10-19T16:41:22.722Z,17.85
2022-10-19T16:43:27.307Z,17.81
2022-10-19T16:45:31.052Z,17.84
2022-10-19T16:47:34.227Z,17.81
2022-10-19T16:49:38.172Z,17.81
2022-10-19T16:51:42.018Z,17.80
2022-10-19T16:53:45.206Z,17.79
2022-10-19T16:55:48.451Z,17.76
2022-10-19T16:57:52.714Z,17.73
2022-10-19T16:59:57.351Z,17.65
2022-10-19T17:02:00.792Z,17.61
2022-10-19T17:09:52.267Z,17.52
2022-10-19T17:11:55.802Z,17.47
2022-10-19T17:14:00.356Z,17.45
2022-10-19T17:16:06.796Z,17.42
2022-10-19T17:18:09.873Z,17.37
2022-10-19T17:20:13.815Z,17.28
2022-10-19T17:22:17.130Z,17.19
2022-10-19T17:24:22.224Z,17.13
2022-10-19T17:26:30.127Z,17.07
2022-10-19T17:28:33.482Z,17.02
2022-10-19T17:30:41.829Z,17.02
2022-10-19T17:32:46.249Z,16.98
2022-10-19T17:34:49.528Z,16.97
2022-10-19T17:36:52.562Z,16.97
2022-10-19T17:38:56.031Z,16.96
2022-10-19T17:41:03.231Z,16.95
2022-10-19T17:43:06.613Z,16.93
2022-10-19T17:45:10.608Z,16.90
2022-10-19T17:47:13.698Z,16.88
2022-10-19T17:49:18.796Z,16.83
2022-10-19T17:51:25.077Z,16.79
2022-10-19T17:53:28.834Z,16.73
2022-10-19T17:55:33.002Z,16.65
2022-10-19T17:57:36.630Z,16.61
2022-10-19T17:59:52.021Z,16.60
2022-10-19T18:01:56.188Z,16.55
2022-10-19T18:03:59.329Z,16.46
2022-10-19T18:06:09.655Z,16.34
2022-10-19T18:08:13.951Z,16.30
2022-10-19T18:10:17.010Z,16.23
2022-10-19T18:12:20.143Z,16.20
2022-10-19T18:14:23.197Z,16.17
2022-10-19T18:16:28.210Z,16.16
2022-10-19T18:18:32.266Z,16.14
2022-10-19T18:20:35.257Z,16.14
2022-10-19T18:22:39.850Z,16.06
2022-10-19T18:24:42.871Z,16.07
2022-10-19T18:26:45.937Z,16.07
2022-10-19T18:28:49.871Z,16.06
2022-10-19T18:30:52.924Z,16.07
2022-10-19T18:32:56.001Z,16.05
2022-10-19T18:34:59.135Z,16.04
2022-10-19T18:37:02.235Z,16.00
2022-10-19T18:39:07.553Z,16.00
2022-10-19T18:43:15.235Z,15.94
2022-10-19T18:45:18.437Z,15.95
2022-10-19T18:47:21.459Z,15.94
2022-10-19T18:49:25.019Z,15.93
2022-10-19T18:51:28.588Z,15.91
2022-10-19T18:53:31.903Z,15.89
2022-10-19T18:55:36.390Z,15.85
2022-10-19T18:57:39.719Z,15.82
2022-10-19T18:59:42.742Z,15.81
2022-10-19T19:01:45.848Z,15.77
2022-10-19T19:03:50.432Z,15.71
2022-10-19T19:05:53.454Z,15.66
2022-10-19T19:07:56.523Z,15.63
2022-10-19T19:09:59.652Z,15.63
2022-10-19T19:12:03.994Z,15.59
2022-10-19T19:14:09.233Z,15.54
2022-10-19T19:16:12.296Z,15.47
2022-10-19T19:18:15.464Z,15.45
2022-10-19T19:20:18.936Z,15.36
2022-10-19T19:22:25.798Z,15.34
2022-10-19T19:24:31.585Z,15.32
2022-10-19T19:26:37.150Z,15.31
2022-10-19T19:28:43.497Z,15.29
2022-10-19T19:30:48.510Z,15.27
2022-10-19T19:32:51.481Z,15.22
2022-10-19T19:34:55.005Z,15.21
2022-10-19T19:36:58.166Z,15.21
2022-10-19T19:39:01.270Z,15.20
2022-10-19T19:41:04.998Z,15.18
2022-10-19T19:43:08.080Z,15.17
2022-10-19T19:45:12.635Z,15.19
2022-10-19T19:47:16.303Z,15.16
2022-10-19T19:49:20.844Z,15.17
2022-10-19T19:51:23.827Z,15.15
2022-10-19T19:53:27.084Z,15.13
2022-10-19T19:55:33.081Z,15.13
2022-10-19T19:57:38.543Z,15.12
2022-10-19T19:59:41.631Z,15.05
2022-10-19T20:01:46.172Z,15.07
2022-10-19T20:03:49.505Z,15.06
2022-10-19T20:05:52.597Z,15.06
2022-10-19T20:07:55.696Z,15.08
2022-10-19T20:09:59.266Z,15.05
2022-10-19T20:12:02.434Z,15.03
2022-10-19T20:14:05.472Z,14.98
2022-10-19T20:16:10.088Z,14.92
2022-10-19T20:18:14.797Z,14.91
2022-10-19T20:20:18.980Z,14.90
2022-10-19T20:22:24.140Z,14.87
2022-10-19T20:24:27.355Z,14.88
2022-10-19T20:26:30.794Z,14.81
2022-10-19T20:28:34.637Z,14.81
2022-10-19T20:30:37.871Z,14.83
2022-10-19T20:32:40.940Z,14.82
2022-10-19T20:34:45.525Z,14.82
2022-10-19T20:36:48.521Z,14.77
2022-10-19T20:38:53.066Z,14.75
2022-10-19T20:40:56.915Z,14.73
2022-10-19T20:42:59.945Z,14.69
2022-10-19T20:45:02.972Z,14.68
2022-10-19T20:47:06.379Z,14.65
2022-10-19T20:49:12.493Z,14.64
2022-10-19T20:51:18.563Z,14.64
2022-10-19T20:53:21.638Z,14.62
2022-10-19T20:55:24.851Z,14.57
2022-10-19T20:57:27.910Z,14.59
2022-10-19T20:59:32.822Z,14.56
2022-10-19T21:01:37.025Z,14.54
2022-10-19T21:03:40.720Z,14.53
2022-10-19T21:05:43.749Z,14.49
2022-10-19T21:07:48.145Z,14.49
2022-10-19T21:09:51.289Z,14.43
2022-10-19T21:11:54.388Z,14.44
2022-10-19T21:13:58.898Z,14.45
2022-10-19T21:16:09.160Z,14.43
2022-10-19T21:18:12.139Z,14.41
2022-10-19T21:20:15.366Z,14.44
2022-10-19T21:22:18.381Z,14.42
2022-10-19T21:24:25.445Z,14.42
2022-10-19T21:26:29.613Z,14.41
2022-10-19T21:28:32.597Z,14.43
2022-10-19T21:30:37.737Z,14.42
2022-10-19T21:32:40.718Z,14.42
2022-10-19T21:34:43.735Z,14.42
2022-10-19T21:36:46.769Z,14.42
2022-10-19T21:38:49.827Z,14.41
2022-10-19T21:40:57.966Z,14.42
2022-10-19T21:43:00.925Z,14.38
2022-10-19T21:45:25.286Z,14.41
2022-10-19T21:47:26.871Z,14.31
2022-10-19T21:49:29.957Z,14.28
2022-10-19T21:51:36.111Z,14.27
2022-10-19T21:53:39.064Z,14.26
2022-10-19T21:55:42.418Z,14.21
2022-10-19T21:57:46.701Z,14.18
2022-10-19T21:59:49.699Z,14.19
2022-10-19T22:01:54.527Z,14.18
2022-10-19T22:03:58.598Z,14.18
2022-10-19T22:06:02.519Z,14.15
2022-10-19T22:08:05.787Z,14.16
2022-10-19T22:10:09.506Z,14.15
2022-10-19T22:14:21.909Z,14.13
2022-10-19T22:16:26.052Z,14.10
2022-10-19T22:18:29.004Z,14.06
2022-10-19T22:20:31.969Z,14.01
2022-10-19T22:22:35.160Z,14.01
2022-10-19T22:24:38.356Z,14.02
2022-10-19T22:26:43.141Z,14.02
2022-10-19T22:28:46.440Z,13.98
2022-10-19T22:30:55.214Z,13.97
2022-10-19T22:32:58.180Z,13.98
2022-10-19T22:35:01.181Z,13.93
2022-10-19T22:37:04.154Z,13.94
2022-10-19T22:39:07.375Z,13.94
2022-10-19T22:41:10.428Z,13.94
2022-10-19T22:43:13.427Z,13.91
2022-10-19T22:45:16.555Z,13.92
2022-10-19T22:47:20.881Z,13.92
2022-10-19T22:49:25.119Z,13.91
2022-10-19T22:51:28.214Z,13.91
2022-10-19T22:53:31.167Z,13.88
2022-10-19T22:55:34.936Z,13.88
2022-10-19T22:57:38.785Z,13.89
2022-10-19T22:59:41.784Z,13.94
2022-10-19T23:01:44.925Z,13.92
2022-10-19T23:03:49.320Z,13.91
2022-10-19T23:05:52.280Z,13.91
2022-10-19T23:07:55.166Z,13.87
2022-10-19T23:09:58.146Z,13.85
2022-10-19T23:12:01.268Z,13.85
2022-10-19T23:14:04.369Z,13.86
2022-10-19T23:16:08.109Z,13.85
2022-10-19T23:18:11.314Z,13.85
2022-10-19T23:20:15.947Z,13.84
2022-10-19T23:22:19.008Z,13.84
2022-10-19T23:24:22.189Z,13.84
2022-10-19T23:26:25.445Z,13.82
2022-10-19T23:28:28.523Z,13.79
2022-10-19T23:30:31.589Z,13.76
2022-10-19T23:32:34.555Z,13.74
2022-10-19T23:34:37.507Z,13.72
2022-10-19T23:36:41.853Z,13.73
2022-10-19T23:38:45.776Z,13.72
2022-10-19T23:40:48.732Z,13.67
2022-10-19T23:42:51.755Z,13.64
2022-10-19T23:44:54.719Z,13.64
2022-10-19T23:46:57.719Z,13.65
2022-10-19T23:49:00.689Z,13.64
2022-10-19T23:51:05.294Z,13.62
2022-10-19T23:53:09.640Z,13.58
2022-10-19T23:55:12.550Z,13.51
2022-10-19T23:57:15.810Z,13.51
2022-10-19T23:59:18.835Z,13.47
